sensor_id;sensor_type;location;lat;lon;timestamp;P1;durP1;ratioP1;P2;durP2;ratioP2
25073;SDS011;13066;52.042;5.648;2023-07-13T00:00:57;10.02;;;2.78;;
25073;SDS011;13066;52.042;5.648;2023-07-13T00:03:26;8.27;;;2.70;;
25073;SDS011;13066;52.042;5.648;2023-07-13T00:06:00;7.93;;;2.63;;
25073;SDS011;13066;52.042;5.648;2023-07-13T00:08:30;18.03;;;3.53;;
25073;SDS011;13066;52.042;5.648;2023-07-13T00:11:00;10.88;;;2.65;;
25073;SDS011;13066;52.042;5.648;2023-07-13T00:13:29;10.13;;;2.92;;
25073;SDS011;13066;52.042;5.648;2023-07-13T00:15:57;9.40;;;2.28;;
25073;SDS011;13066;52.042;5.648;2023-07-13T00:18:27;15.32;;;2.70;;
25073;SDS011;13066;52.042;5.648;2023-07-13T00:20:57;9.40;;;2.60;;
25073;SDS011;13066;52.042;5.648;2023-07-13T00:23:33;11.50;;;2.05;;
25073;SDS011;13066;52.042;5.648;2023-07-13T00:26:03;8.40;;;2.28;;
25073;SDS011;13066;52.042;5.648;2023-07-13T00:28:32;9.43;;;2.30;;
25073;SDS011;13066;52.042;5.648;2023-07-13T00:31:01;9.25;;;2.75;;
25073;SDS011;13066;52.042;5.648;2023-07-13T00:33:33;10.50;;;2.55;;
25073;SDS011;13066;52.042;5.648;2023-07-13T00:36:01;8.45;;;2.38;;
25073;SDS011;13066;52.042;5.648;2023-07-13T00:38:30;4.50;;;2.00;;
25073;SDS011;13066;52.042;5.648;2023-07-13T00:40:59;6.28;;;2.30;;
25073;SDS011;13066;52.042;5.648;2023-07-13T00:43:28;11.07;;;2.47;;
25073;SDS011;13066;52.042;5.648;2023-07-13T00:46:09;10.57;;;2.60;;
25073;SDS011;13066;52.042;5.648;2023-07-13T00:48:40;12.38;;;2.60;;
25073;SDS011;13066;52.042;5.648;2023-07-13T00:51:09;6.32;;;2.42;;
25073;SDS011;13066;52.042;5.648;2023-07-13T00:53:40;11.80;;;2.60;;
25073;SDS011;13066;52.042;5.648;2023-07-13T00:56:10;7.57;;;2.70;;
25073;SDS011;13066;52.042;5.648;2023-07-13T00:58:38;12.65;;;2.50;;
25073;SDS011;13066;52.042;5.648;2023-07-13T01:01:07;14.10;;;2.47;;
25073;SDS011;13066;52.042;5.648;2023-07-13T01:03:35;10.80;;;2.55;;
25073;SDS011;13066;52.042;5.648;2023-07-13T01:06:04;11.40;;;2.50;;
25073;SDS011;13066;52.042;5.648;2023-07-13T01:08:33;11.43;;;2.15;;
25073;SDS011;13066;52.042;5.648;2023-07-13T01:11:01;12.38;;;2.60;;
25073;SDS011;13066;52.042;5.648;2023-07-13T01:13:31;11.38;;;2.67;;
25073;SDS011;13066;52.042;5.648;2023-07-13T01:16:01;11.73;;;2.90;;
25073;SDS011;13066;52.042;5.648;2023-07-13T01:18:32;8.43;;;2.30;;
25073;SDS011;13066;52.042;5.648;2023-07-13T01:21:02;8.35;;;2.30;;
25073;SDS011;13066;52.042;5.648;2023-07-13T01:23:32;8.52;;;2.45;;
25073;SDS011;13066;52.042;5.648;2023-07-13T01:26:00;6.95;;;2.40;;
25073;SDS011;13066;52.042;5.648;2023-07-13T01:28:29;13.00;;;3.00;;
25073;SDS011;13066;52.042;5.648;2023-07-13T01:30:59;10.07;;;2.60;;
25073;SDS011;13066;52.042;5.648;2023-07-13T01:33:28;11.77;;;2.67;;
25073;SDS011;13066;52.042;5.648;2023-07-13T01:35:56;6.18;;;2.05;;
25073;SDS011;13066;52.042;5.648;2023-07-13T01:38:26;8.95;;;2.30;;
25073;SDS011;13066;52.042;5.648;2023-07-13T01:40:54;8.32;;;2.60;;
25073;SDS011;13066;52.042;5.648;2023-07-13T01:43:24;13.52;;;2.45;;
25073;SDS011;13066;52.042;5.648;2023-07-13T01:45:52;11.85;;;2.75;;
25073;SDS011;13066;52.042;5.648;2023-07-13T01:48:41;13.38;;;2.63;;
25073;SDS011;13066;52.042;5.648;2023-07-13T01:51:09;11.93;;;3.13;;
25073;SDS011;13066;52.042;5.648;2023-07-13T01:53:39;9.18;;;2.60;;
25073;SDS011;13066;52.042;5.648;2023-07-13T01:56:07;8.55;;;2.33;;
25073;SDS011;13066;52.042;5.648;2023-07-13T01:58:36;10.10;;;2.90;;
25073;SDS011;13066;52.042;5.648;2023-07-13T02:01:04;9.50;;;2.85;;
25073;SDS011;13066;52.042;5.648;2023-07-13T02:03:33;13.90;;;3.05;;
25073;SDS011;13066;52.042;5.648;2023-07-13T02:06:02;11.02;;;2.45;;
25073;SDS011;13066;52.042;5.648;2023-07-13T02:08:32;7.93;;;2.47;;
25073;SDS011;13066;52.042;5.648;2023-07-13T02:11:03;14.65;;;2.60;;
25073;SDS011;13066;52.042;5.648;2023-07-13T02:13:32;11.73;;;2.45;;
25073;SDS011;13066;52.042;5.648;2023-07-13T02:16:00;14.35;;;2.83;;
25073;SDS011;13066;52.042;5.648;2023-07-13T02:18:28;10.77;;;2.55;;
25073;SDS011;13066;52.042;5.648;2023-07-13T02:20:57;10.98;;;2.50;;
25073;SDS011;13066;52.042;5.648;2023-07-13T02:23:25;10.38;;;2.75;;
25073;SDS011;13066;52.042;5.648;2023-07-13T02:25:54;11.13;;;2.78;;
25073;SDS011;13066;52.042;5.648;2023-07-13T02:28:24;6.97;;;2.55;;
25073;SDS011;13066;52.042;5.648;2023-07-13T02:30:52;6.40;;;2.20;;
25073;SDS011;13066;52.042;5.648;2023-07-13T02:33:21;11.80;;;2.83;;
25073;SDS011;13066;52.042;5.648;2023-07-13T02:35:49;11.65;;;2.63;;
25073;SDS011;13066;52.042;5.648;2023-07-13T02:38:18;10.60;;;2.45;;
25073;SDS011;13066;52.042;5.648;2023-07-13T02:40:47;7.97;;;2.42;;
25073;SDS011;13066;52.042;5.648;2023-07-13T02:43:15;10.15;;;2.80;;
25073;SDS011;13066;52.042;5.648;2023-07-13T02:45:45;12.27;;;2.95;;
25073;SDS011;13066;52.042;5.648;2023-07-13T02:48:13;10.27;;;2.85;;
25073;SDS011;13066;52.042;5.648;2023-07-13T02:50:42;8.27;;;2.78;;
25073;SDS011;13066;52.042;5.648;2023-07-13T02:53:10;13.55;;;3.35;;
25073;SDS011;13066;52.042;5.648;2023-07-13T02:55:39;13.13;;;3.10;;
25073;SDS011;13066;52.042;5.648;2023-07-13T02:58:07;8.68;;;2.72;;
25073;SDS011;13066;52.042;5.648;2023-07-13T03:00:37;14.60;;;3.17;;
25073;SDS011;13066;52.042;5.648;2023-07-13T03:03:09;13.98;;;3.65;;
25073;SDS011;13066;52.042;5.648;2023-07-13T03:05:39;15.65;;;2.53;;
25073;SDS011;13066;52.042;5.648;2023-07-13T03:08:09;16.08;;;3.10;;
25073;SDS011;13066;52.042;5.648;2023-07-13T03:10:38;13.05;;;3.15;;
25073;SDS011;13066;52.042;5.648;2023-07-13T03:13:09;16.33;;;3.45;;
25073;SDS011;13066;52.042;5.648;2023-07-13T03:15:37;11.95;;;3.47;;
25073;SDS011;13066;52.042;5.648;2023-07-13T03:18:06;21.90;;;3.90;;
25073;SDS011;13066;52.042;5.648;2023-07-13T03:20:36;18.75;;;3.28;;
25073;SDS011;13066;52.042;5.648;2023-07-13T03:23:04;9.93;;;3.78;;
25073;SDS011;13066;52.042;5.648;2023-07-13T03:25:32;20.48;;;3.97;;
25073;SDS011;13066;52.042;5.648;2023-07-13T03:28:01;9.30;;;3.65;;
25073;SDS011;13066;52.042;5.648;2023-07-13T03:30:32;12.10;;;3.38;;
25073;SDS011;13066;52.042;5.648;2023-07-13T03:33:00;12.88;;;3.17;;
25073;SDS011;13066;52.042;5.648;2023-07-13T03:35:29;17.98;;;3.95;;
25073;SDS011;13066;52.042;5.648;2023-07-13T03:38:01;11.13;;;3.88;;
25073;SDS011;13066;52.042;5.648;2023-07-13T03:40:29;16.17;;;3.33;;
25073;SDS011;13066;52.042;5.648;2023-07-13T03:42:58;17.92;;;3.72;;
25073;SDS011;13066;52.042;5.648;2023-07-13T03:45:30;16.48;;;3.70;;
25073;SDS011;13066;52.042;5.648;2023-07-13T03:47:58;15.05;;;4.20;;
25073;SDS011;13066;52.042;5.648;2023-07-13T03:50:26;13.48;;;3.45;;
25073;SDS011;13066;52.042;5.648;2023-07-13T03:52:55;16.90;;;4.05;;
25073;SDS011;13066;52.042;5.648;2023-07-13T03:55:26;17.30;;;4.50;;
25073;SDS011;13066;52.042;5.648;2023-07-13T03:57:57;18.63;;;4.32;;
25073;SDS011;13066;52.042;5.648;2023-07-13T04:00:27;17.33;;;4.68;;
25073;SDS011;13066;52.042;5.648;2023-07-13T04:02:55;12.73;;;3.95;;
25073;SDS011;13066;52.042;5.648;2023-07-13T04:05:23;12.73;;;4.05;;
25073;SDS011;13066;52.042;5.648;2023-07-13T04:07:51;14.82;;;4.43;;
25073;SDS011;13066;52.042;5.648;2023-07-13T04:10:19;17.35;;;4.60;;
25073;SDS011;13066;52.042;5.648;2023-07-13T04:12:49;17.27;;;4.35;;
25073;SDS011;13066;52.042;5.648;2023-07-13T04:15:17;19.92;;;4.35;;
25073;SDS011;13066;52.042;5.648;2023-07-13T04:17:45;20.48;;;4.63;;
25073;SDS011;13066;52.042;5.648;2023-07-13T04:20:14;23.15;;;4.57;;
25073;SDS011;13066;52.042;5.648;2023-07-13T04:22:42;15.18;;;4.78;;
25073;SDS011;13066;52.042;5.648;2023-07-13T04:25:10;15.85;;;4.70;;
25073;SDS011;13066;52.042;5.648;2023-07-13T04:27:38;15.00;;;4.15;;
25073;SDS011;13066;52.042;5.648;2023-07-13T04:30:09;12.35;;;3.78;;
25073;SDS011;13066;52.042;5.648;2023-07-13T04:32:37;19.80;;;4.43;;
25073;SDS011;13066;52.042;5.648;2023-07-13T04:35:06;23.80;;;5.05;;
25073;SDS011;13066;52.042;5.648;2023-07-13T04:37:35;22.38;;;4.97;;
25073;SDS011;13066;52.042;5.648;2023-07-13T04:40:03;17.90;;;5.47;;
25073;SDS011;13066;52.042;5.648;2023-07-13T04:42:32;15.18;;;4.82;;
25073;SDS011;13066;52.042;5.648;2023-07-13T04:45:01;16.88;;;4.70;;
25073;SDS011;13066;52.042;5.648;2023-07-13T04:47:31;15.20;;;5.07;;
25073;SDS011;13066;52.042;5.648;2023-07-13T04:49:59;17.95;;;4.43;;
25073;SDS011;13066;52.042;5.648;2023-07-13T04:52:28;15.68;;;4.80;;
25073;SDS011;13066;52.042;5.648;2023-07-13T04:54:56;17.48;;;5.32;;
25073;SDS011;13066;52.042;5.648;2023-07-13T04:57:24;15.32;;;5.00;;
25073;SDS011;13066;52.042;5.648;2023-07-13T04:59:52;18.98;;;5.20;;
25073;SDS011;13066;52.042;5.648;2023-07-13T05:02:20;19.33;;;4.72;;
25073;SDS011;13066;52.042;5.648;2023-07-13T05:04:50;18.77;;;5.05;;
25073;SDS011;13066;52.042;5.648;2023-07-13T05:07:18;23.55;;;5.85;;
25073;SDS011;13066;52.042;5.648;2023-07-13T05:09:47;18.65;;;5.63;;
25073;SDS011;13066;52.042;5.648;2023-07-13T05:12:15;24.05;;;5.85;;
25073;SDS011;13066;52.042;5.648;2023-07-13T05:14:43;30.70;;;6.07;;
25073;SDS011;13066;52.042;5.648;2023-07-13T05:17:12;19.60;;;6.07;;
25073;SDS011;13066;52.042;5.648;2023-07-13T05:19:40;29.30;;;5.97;;
25073;SDS011;13066;52.042;5.648;2023-07-13T05:22:09;18.95;;;6.47;;
25073;SDS011;13066;52.042;5.648;2023-07-13T05:24:37;20.95;;;6.00;;
25073;SDS011;13066;52.042;5.648;2023-07-13T05:27:06;24.15;;;7.00;;
25073;SDS011;13066;52.042;5.648;2023-07-13T05:29:34;28.13;;;6.70;;
25073;SDS011;13066;52.042;5.648;2023-07-13T05:32:02;27.58;;;6.65;;
25073;SDS011;13066;52.042;5.648;2023-07-13T05:34:31;32.10;;;7.38;;
25073;SDS011;13066;52.042;5.648;2023-07-13T05:36:58;21.20;;;6.82;;
25073;SDS011;13066;52.042;5.648;2023-07-13T05:39:28;26.45;;;7.20;;
25073;SDS011;13066;52.042;5.648;2023-07-13T05:41:57;24.70;;;7.30;;
25073;SDS011;13066;52.042;5.648;2023-07-13T05:44:25;23.15;;;7.35;;
25073;SDS011;13066;52.042;5.648;2023-07-13T05:46:53;29.33;;;7.90;;
25073;SDS011;13066;52.042;5.648;2023-07-13T05:49:23;29.17;;;8.40;;
25073;SDS011;13066;52.042;5.648;2023-07-13T05:51:51;28.95;;;7.85;;
25073;SDS011;13066;52.042;5.648;2023-07-13T05:54:19;22.50;;;7.63;;
25073;SDS011;13066;52.042;5.648;2023-07-13T05:56:49;25.50;;;7.82;;
25073;SDS011;13066;52.042;5.648;2023-07-13T05:59:17;31.45;;;9.40;;
25073;SDS011;13066;52.042;5.648;2023-07-13T06:01:46;24.02;;;8.45;;
25073;SDS011;13066;52.042;5.648;2023-07-13T06:04:14;26.70;;;8.30;;
25073;SDS011;13066;52.042;5.648;2023-07-13T06:06:43;28.35;;;8.75;;
25073;SDS011;13066;52.042;5.648;2023-07-13T06:09:11;26.38;;;8.07;;
25073;SDS011;13066;52.042;5.648;2023-07-13T06:11:39;23.73;;;8.88;;
25073;SDS011;13066;52.042;5.648;2023-07-13T06:14:09;28.52;;;9.48;;
25073;SDS011;13066;52.042;5.648;2023-07-13T06:16:37;30.70;;;9.55;;
25073;SDS011;13066;52.042;5.648;2023-07-13T06:19:07;39.10;;;10.25;;
25073;SDS011;13066;52.042;5.648;2023-07-13T06:21:35;36.08;;;10.80;;
25073;SDS011;13066;52.042;5.648;2023-07-13T06:24:03;31.00;;;11.02;;
25073;SDS011;13066;52.042;5.648;2023-07-13T06:26:31;34.45;;;11.43;;
25073;SDS011;13066;52.042;5.648;2023-07-13T06:29:00;40.40;;;12.75;;
25073;SDS011;13066;52.042;5.648;2023-07-13T06:31:29;36.92;;;12.50;;
25073;SDS011;13066;52.042;5.648;2023-07-13T06:33:58;30.48;;;11.07;;
25073;SDS011;13066;52.042;5.648;2023-07-13T06:36:26;31.17;;;11.88;;
25073;SDS011;13066;52.042;5.648;2023-07-13T06:38:54;28.08;;;11.63;;
25073;SDS011;13066;52.042;5.648;2023-07-13T06:41:23;32.13;;;12.18;;
25073;SDS011;13066;52.042;5.648;2023-07-13T06:43:52;34.45;;;12.43;;
25073;SDS011;13066;52.042;5.648;2023-07-13T06:46:20;29.67;;;11.77;;
25073;SDS011;13066;52.042;5.648;2023-07-13T06:48:50;29.50;;;11.50;;
25073;SDS011;13066;52.042;5.648;2023-07-13T06:51:19;31.10;;;11.20;;
25073;SDS011;13066;52.042;5.648;2023-07-13T06:53:47;32.50;;;11.00;;
25073;SDS011;13066;52.042;5.648;2023-07-13T06:56:16;28.80;;;11.18;;
25073;SDS011;13066;52.042;5.648;2023-07-13T06:58:44;29.77;;;11.93;;
25073;SDS011;13066;52.042;5.648;2023-07-13T07:01:13;26.40;;;11.20;;
25073;SDS011;13066;52.042;5.648;2023-07-13T07:03:41;31.02;;;11.85;;
25073;SDS011;13066;52.042;5.648;2023-07-13T07:06:14;35.10;;;11.75;;
25073;SDS011;13066;52.042;5.648;2023-07-13T07:08:43;37.35;;;11.25;;
25073;SDS011;13066;52.042;5.648;2023-07-13T07:11:14;34.15;;;11.02;;
25073;SDS011;13066;52.042;5.648;2023-07-13T07:13:44;28.75;;;11.50;;
25073;SDS011;13066;52.042;5.648;2023-07-13T07:16:12;25.73;;;10.75;;
25073;SDS011;13066;52.042;5.648;2023-07-13T07:18:40;26.65;;;10.82;;
25073;SDS011;13066;52.042;5.648;2023-07-13T07:21:09;28.17;;;11.60;;
25073;SDS011;13066;52.042;5.648;2023-07-13T07:23:40;29.05;;;11.00;;
25073;SDS011;13066;52.042;5.648;2023-07-13T07:26:09;28.60;;;11.10;;
25073;SDS011;13066;52.042;5.648;2023-07-13T07:28:38;30.58;;;11.40;;
25073;SDS011;13066;52.042;5.648;2023-07-13T07:33:43;35.30;;;12.27;;
25073;SDS011;13066;52.042;5.648;2023-07-13T07:36:11;25.95;;;10.63;;
25073;SDS011;13066;52.042;5.648;2023-07-13T07:38:44;36.53;;;11.50;;
25073;SDS011;13066;52.042;5.648;2023-07-13T07:41:12;32.20;;;11.55;;
25073;SDS011;13066;52.042;5.648;2023-07-13T07:43:43;33.65;;;11.35;;
25073;SDS011;13066;52.042;5.648;2023-07-13T07:46:11;28.63;;;12.10;;
25073;SDS011;13066;52.042;5.648;2023-07-13T07:48:40;27.35;;;11.35;;
25073;SDS011;13066;52.042;5.648;2023-07-13T07:51:09;24.55;;;11.15;;
25073;SDS011;13066;52.042;5.648;2023-07-13T07:53:37;29.17;;;11.70;;
25073;SDS011;13066;52.042;5.648;2023-07-13T07:56:06;23.48;;;10.27;;
25073;SDS011;13066;52.042;5.648;2023-07-13T07:58:39;28.58;;;10.88;;
25073;SDS011;13066;52.042;5.648;2023-07-13T08:01:10;21.83;;;9.82;;
25073;SDS011;13066;52.042;5.648;2023-07-13T08:03:45;25.13;;;10.77;;
25073;SDS011;13066;52.042;5.648;2023-07-13T08:06:16;24.20;;;10.80;;
25073;SDS011;13066;52.042;5.648;2023-07-13T08:08:49;25.92;;;10.48;;
25073;SDS011;13066;52.042;5.648;2023-07-13T08:11:20;21.45;;;9.95;;
25073;SDS011;13066;52.042;5.648;2023-07-13T08:13:52;29.20;;;10.00;;
25073;SDS011;13066;52.042;5.648;2023-07-13T08:16:21;27.23;;;9.05;;
25073;SDS011;13066;52.042;5.648;2023-07-13T08:18:50;21.75;;;9.77;;
25073;SDS011;13066;52.042;5.648;2023-07-13T08:21:18;25.10;;;9.88;;
25073;SDS011;13066;52.042;5.648;2023-07-13T08:23:47;35.50;;;10.55;;
25073;SDS011;13066;52.042;5.648;2023-07-13T08:26:15;22.63;;;10.05;;
25073;SDS011;13066;52.042;5.648;2023-07-13T08:28:45;21.50;;;9.95;;
25073;SDS011;13066;52.042;5.648;2023-07-13T08:31:13;23.77;;;9.48;;
25073;SDS011;13066;52.042;5.648;2023-07-13T08:33:42;25.42;;;10.02;;
25073;SDS011;13066;52.042;5.648;2023-07-13T08:36:10;20.15;;;8.77;;
25073;SDS011;13066;52.042;5.648;2023-07-13T08:38:38;21.58;;;9.32;;
25073;SDS011;13066;52.042;5.648;2023-07-13T08:41:11;24.15;;;9.75;;
25073;SDS011;13066;52.042;5.648;2023-07-13T08:46:11;23.23;;;9.32;;
25073;SDS011;13066;52.042;5.648;2023-07-13T08:48:43;24.55;;;10.25;;
25073;SDS011;13066;52.042;5.648;2023-07-13T08:51:26;24.75;;;9.30;;
25073;SDS011;13066;52.042;5.648;2023-07-13T08:54:02;14.63;;;6.80;;
25073;SDS011;13066;52.042;5.648;2023-07-13T08:56:31;17.33;;;5.72;;
25073;SDS011;13066;52.042;5.648;2023-07-13T08:59:02;11.85;;;4.85;;
25073;SDS011;13066;52.042;5.648;2023-07-13T09:01:50;13.73;;;4.30;;
25073;SDS011;13066;52.042;5.648;2023-07-13T09:04:38;12.63;;;3.38;;
25073;SDS011;13066;52.042;5.648;2023-07-13T09:07:11;10.10;;;3.17;;
25073;SDS011;13066;52.042;5.648;2023-07-13T09:09:47;6.05;;;2.88;;
25073;SDS011;13066;52.042;5.648;2023-07-13T09:12:23;15.63;;;3.10;;
25073;SDS011;13066;52.042;5.648;2023-07-13T09:14:55;10.13;;;3.07;;
25073;SDS011;13066;52.042;5.648;2023-07-13T09:17:27;8.10;;;3.00;;
25073;SDS011;13066;52.042;5.648;2023-07-13T09:20:03;9.13;;;2.90;;
25073;SDS011;13066;52.042;5.648;2023-07-13T09:22:37;15.50;;;3.15;;
25073;SDS011;13066;52.042;5.648;2023-07-13T09:25:12;8.88;;;3.22;;
25073;SDS011;13066;52.042;5.648;2023-07-13T09:27:50;9.60;;;3.72;;
25073;SDS011;13066;52.042;5.648;2023-07-13T09:30:24;13.00;;;3.50;;
25073;SDS011;13066;52.042;5.648;2023-07-13T09:32:59;5.68;;;2.30;;
25073;SDS011;13066;52.042;5.648;2023-07-13T09:35:28;6.47;;;2.20;;
25073;SDS011;13066;52.042;5.648;2023-07-13T09:37:58;5.13;;;2.22;;
25073;SDS011;13066;52.042;5.648;2023-07-13T09:40:32;9.68;;;2.60;;
25073;SDS011;13066;52.042;5.648;2023-07-13T09:43:07;11.25;;;3.20;;
25073;SDS011;13066;52.042;5.648;2023-07-13T09:45:37;8.73;;;2.90;;
25073;SDS011;13066;52.042;5.648;2023-07-13T09:48:10;10.82;;;3.17;;
25073;SDS011;13066;52.042;5.648;2023-07-13T09:53:11;14.20;;;3.72;;
25073;SDS011;13066;52.042;5.648;2023-07-13T09:55:40;12.52;;;3.33;;
25073;SDS011;13066;52.042;5.648;2023-07-13T09:58:10;10.88;;;3.72;;
25073;SDS011;13066;52.042;5.648;2023-07-13T10:00:41;13.95;;;3.70;;
25073;SDS011;13066;52.042;5.648;2023-07-13T10:03:19;14.32;;;3.50;;
25073;SDS011;13066;52.042;5.648;2023-07-13T10:05:52;15.65;;;3.92;;
25073;SDS011;13066;52.042;5.648;2023-07-13T10:08:22;11.20;;;3.33;;
25073;SDS011;13066;52.042;5.648;2023-07-13T10:10:58;18.77;;;4.32;;
25073;SDS011;13066;52.042;5.648;2023-07-13T10:13:29;13.70;;;3.25;;
25073;SDS011;13066;52.042;5.648;2023-07-13T10:15:59;13.07;;;3.30;;
25073;SDS011;13066;52.042;5.648;2023-07-13T10:18:29;10.05;;;2.85;;
25073;SDS011;13066;52.042;5.648;2023-07-13T10:21:08;15.48;;;3.90;;
25073;SDS011;13066;52.042;5.648;2023-07-13T10:24:02;14.85;;;3.60;;
25073;SDS011;13066;52.042;5.648;2023-07-13T10:26:34;11.35;;;3.65;;
25073;SDS011;13066;52.042;5.648;2023-07-13T10:29:04;17.35;;;4.65;;
25073;SDS011;13066;52.042;5.648;2023-07-13T10:31:34;12.65;;;3.92;;
25073;SDS011;13066;52.042;5.648;2023-07-13T10:34:07;13.95;;;3.90;;
25073;SDS011;13066;52.042;5.648;2023-07-13T10:36:38;12.57;;;3.58;;
25073;SDS011;13066;52.042;5.648;2023-07-13T10:39:09;12.40;;;3.22;;
25073;SDS011;13066;52.042;5.648;2023-07-13T10:41:43;9.43;;;3.00;;
25073;SDS011;13066;52.042;5.648;2023-07-13T10:44:15;8.65;;;2.60;;
25073;SDS011;13066;52.042;5.648;2023-07-13T10:46:47;7.28;;;2.60;;
25073;SDS011;13066;52.042;5.648;2023-07-13T10:49:18;9.68;;;2.97;;
25073;SDS011;13066;52.042;5.648;2023-07-13T10:51:46;11.80;;;3.03;;
25073;SDS011;13066;52.042;5.648;2023-07-13T10:54:16;8.40;;;2.75;;
25073;SDS011;13066;52.042;5.648;2023-07-13T10:56:49;12.10;;;2.88;;
25073;SDS011;13066;52.042;5.648;2023-07-13T10:59:24;6.97;;;2.35;;
25073;SDS011;13066;52.042;5.648;2023-07-13T11:01:56;7.20;;;2.40;;
25073;SDS011;13066;52.042;5.648;2023-07-13T11:04:27;9.65;;;2.72;;
25073;SDS011;13066;52.042;5.648;2023-07-13T11:06:58;6.10;;;3.00;;
25073;SDS011;13066;52.042;5.648;2023-07-13T11:09:32;6.88;;;2.80;;
25073;SDS011;13066;52.042;5.648;2023-07-13T11:12:10;7.85;;;2.70;;
25073;SDS011;13066;52.042;5.648;2023-07-13T11:15:02;10.60;;;3.55;;
25073;SDS011;13066;52.042;5.648;2023-07-13T11:17:35;7.72;;;3.47;;
25073;SDS011;13066;52.042;5.648;2023-07-13T11:20:18;8.77;;;3.80;;
25073;SDS011;13066;52.042;5.648;2023-07-13T11:22:49;7.25;;;3.42;;
25073;SDS011;13066;52.042;5.648;2023-07-13T11:25:26;9.05;;;3.90;;
25073;SDS011;13066;52.042;5.648;2023-07-13T11:28:04;7.55;;;3.45;;
25073;SDS011;13066;52.042;5.648;2023-07-13T11:30:39;7.90;;;3.15;;
25073;SDS011;13066;52.042;5.648;2023-07-13T11:33:10;7.15;;;3.30;;
25073;SDS011;13066;52.042;5.648;2023-07-13T11:35:46;7.68;;;3.30;;
25073;SDS011;13066;52.042;5.648;2023-07-13T11:38:22;8.90;;;3.38;;
25073;SDS011;13066;52.042;5.648;2023-07-13T11:40:52;9.10;;;3.38;;
25073;SDS011;13066;52.042;5.648;2023-07-13T11:43:22;12.30;;;3.20;;
25073;SDS011;13066;52.042;5.648;2023-07-13T11:45:52;15.40;;;2.95;;
25073;SDS011;13066;52.042;5.648;2023-07-13T11:48:21;6.85;;;3.10;;
25073;SDS011;13066;52.042;5.648;2023-07-13T11:50:54;7.32;;;2.83;;
25073;SDS011;13066;52.042;5.648;2023-07-13T11:53:26;9.20;;;3.90;;
25073;SDS011;13066;52.042;5.648;2023-07-13T11:55:56;6.45;;;2.75;;
25073;SDS011;13066;52.042;5.648;2023-07-13T11:58:25;11.65;;;3.45;;
25073;SDS011;13066;52.042;5.648;2023-07-13T12:00:55;11.05;;;3.63;;
25073;SDS011;13066;52.042;5.648;2023-07-13T12:03:27;8.55;;;3.38;;
25073;SDS011;13066;52.042;5.648;2023-07-13T12:06:01;7.03;;;2.90;;
25073;SDS011;13066;52.042;5.648;2023-07-13T12:08:37;6.95;;;2.67;;
25073;SDS011;13066;52.042;5.648;2023-07-13T12:11:11;8.80;;;2.90;;
25073;SDS011;13066;52.042;5.648;2023-07-13T12:13:44;8.55;;;2.90;;
25073;SDS011;13066;52.042;5.648;2023-07-13T12:16:14;13.85;;;2.97;;
25073;SDS011;13066;52.042;5.648;2023-07-13T12:18:44;7.72;;;3.20;;
25073;SDS011;13066;52.042;5.648;2023-07-13T12:21:18;4.60;;;2.45;;
25073;SDS011;13066;52.042;5.648;2023-07-13T12:23:47;9.25;;;2.55;;
25073;SDS011;13066;52.042;5.648;2023-07-13T12:26:17;7.05;;;2.45;;
25073;SDS011;13066;52.042;5.648;2023-07-13T12:28:46;7.30;;;3.20;;
25073;SDS011;13066;52.042;5.648;2023-07-13T12:31:24;4.93;;;2.67;;
25073;SDS011;13066;52.042;5.648;2023-07-13T12:33:56;4.93;;;2.60;;
25073;SDS011;13066;52.042;5.648;2023-07-13T12:36:27;9.07;;;2.85;;
25073;SDS011;13066;52.042;5.648;2023-07-13T12:38:59;10.10;;;3.15;;
25073;SDS011;13066;52.042;5.648;2023-07-13T12:41:32;8.32;;;3.38;;
25073;SDS011;13066;52.042;5.648;2023-07-13T12:44:00;12.77;;;3.22;;
25073;SDS011;13066;52.042;5.648;2023-07-13T12:46:29;5.70;;;3.05;;
25073;SDS011;13066;52.042;5.648;2023-07-13T12:48:58;10.77;;;3.85;;
25073;SDS011;13066;52.042;5.648;2023-07-13T12:51:45;13.15;;;4.07;;
25073;SDS011;13066;52.042;5.648;2023-07-13T12:54:18;16.67;;;4.13;;
25073;SDS011;13066;52.042;5.648;2023-07-13T12:56:48;6.03;;;3.47;;
25073;SDS011;13066;52.042;5.648;2023-07-13T12:59:19;12.55;;;5.45;;
25073;SDS011;13066;52.042;5.648;2023-07-13T13:01:48;11.70;;;4.80;;
25073;SDS011;13066;52.042;5.648;2023-07-13T13:04:17;8.65;;;3.30;;
25073;SDS011;13066;52.042;5.648;2023-07-13T13:06:59;12.05;;;3.92;;
25073;SDS011;13066;52.042;5.648;2023-07-13T13:09:28;17.30;;;3.60;;
25073;SDS011;13066;52.042;5.648;2023-07-13T13:11:57;10.18;;;3.47;;
25073;SDS011;13066;52.042;5.648;2023-07-13T13:14:25;10.68;;;3.45;;
25073;SDS011;13066;52.042;5.648;2023-07-13T13:16:54;12.55;;;2.92;;
25073;SDS011;13066;52.042;5.648;2023-07-13T13:19:24;9.88;;;3.20;;
25073;SDS011;13066;52.042;5.648;2023-07-13T13:21:55;6.28;;;2.78;;
25073;SDS011;13066;52.042;5.648;2023-07-13T13:24:26;9.88;;;3.25;;
25073;SDS011;13066;52.042;5.648;2023-07-13T13:26:54;7.95;;;2.90;;
25073;SDS011;13066;52.042;5.648;2023-07-13T13:29:24;7.50;;;2.67;;
25073;SDS011;13066;52.042;5.648;2023-07-13T13:31:53;8.27;;;3.30;;
25073;SDS011;13066;52.042;5.648;2023-07-13T13:34:22;7.40;;;3.20;;
25073;SDS011;13066;52.042;5.648;2023-07-13T13:36:52;5.70;;;2.60;;
25073;SDS011;13066;52.042;5.648;2023-07-13T13:39:28;6.13;;;2.83;;
25073;SDS011;13066;52.042;5.648;2023-07-13T13:41:58;7.00;;;2.60;;
25073;SDS011;13066;52.042;5.648;2023-07-13T13:44:26;4.82;;;2.80;;
25073;SDS011;13066;52.042;5.648;2023-07-13T13:46:55;8.30;;;2.60;;
25073;SDS011;13066;52.042;5.648;2023-07-13T13:49:25;8.40;;;2.90;;
25073;SDS011;13066;52.042;5.648;2023-07-13T13:51:54;5.22;;;2.50;;
25073;SDS011;13066;52.042;5.648;2023-07-13T13:54:23;6.22;;;2.55;;
25073;SDS011;13066;52.042;5.648;2023-07-13T13:56:54;4.97;;;2.25;;
25073;SDS011;13066;52.042;5.648;2023-07-13T13:59:26;4.32;;;2.25;;
25073;SDS011;13066;52.042;5.648;2023-07-13T14:01:54;5.50;;;2.15;;
25073;SDS011;13066;52.042;5.648;2023-07-13T14:04:26;8.40;;;2.25;;
25073;SDS011;13066;52.042;5.648;2023-07-13T14:06:54;4.50;;;2.35;;
25073;SDS011;13066;52.042;5.648;2023-07-13T14:09:23;7.10;;;2.45;;
25073;SDS011;13066;52.042;5.648;2023-07-13T14:11:51;7.50;;;2.30;;
25073;SDS011;13066;52.042;5.648;2023-07-13T14:14:22;5.53;;;2.10;;
25073;SDS011;13066;52.042;5.648;2023-07-13T14:16:52;6.60;;;2.90;;
25073;SDS011;13066;52.042;5.648;2023-07-13T14:19:21;4.80;;;2.20;;
25073;SDS011;13066;52.042;5.648;2023-07-13T14:21:50;5.97;;;2.50;;
25073;SDS011;13066;52.042;5.648;2023-07-13T14:24:20;5.05;;;2.80;;
25073;SDS011;13066;52.042;5.648;2023-07-13T14:26:49;3.95;;;2.50;;
25073;SDS011;13066;52.042;5.648;2023-07-13T14:29:18;5.45;;;2.70;;
25073;SDS011;13066;52.042;5.648;2023-07-13T14:31:51;7.97;;;3.20;;
25073;SDS011;13066;52.042;5.648;2023-07-13T14:34:20;7.18;;;2.90;;
25073;SDS011;13066;52.042;5.648;2023-07-13T14:36:49;4.30;;;2.53;;
25073;SDS011;13066;52.042;5.648;2023-07-13T14:39:18;7.13;;;2.70;;
25073;SDS011;13066;52.042;5.648;2023-07-13T14:41:49;5.55;;;2.53;;
25073;SDS011;13066;52.042;5.648;2023-07-13T14:44:19;5.97;;;2.55;;
25073;SDS011;13066;52.042;5.648;2023-07-13T14:46:49;7.13;;;2.85;;
25073;SDS011;13066;52.042;5.648;2023-07-13T14:49:21;6.57;;;3.90;;
25073;SDS011;13066;52.042;5.648;2023-07-13T14:51:52;19.35;;;5.88;;
25073;SDS011;13066;52.042;5.648;2023-07-13T14:54:20;11.35;;;3.70;;
25073;SDS011;13066;52.042;5.648;2023-07-13T14:56:48;8.13;;;3.22;;
25073;SDS011;13066;52.042;5.648;2023-07-13T14:59:17;6.80;;;3.38;;
25073;SDS011;13066;52.042;5.648;2023-07-13T15:01:46;6.47;;;3.10;;
25073;SDS011;13066;52.042;5.648;2023-07-13T15:04:16;7.00;;;2.60;;